CYMA

Mayo Airport

Mayo, , Canada
METAR CYMA 161400Z VRB02KT 20SM OVC052 M02/M04 A2932 RMK SC8 SLP961
Observed Flight Rules
Dec-16 @ 14:00 UTC (35 minutes ago) Visual Flight Rules
Wind Visibility Clouds
Variable at 2 knots 20 miles
  • Overcast at 5,200' AGL
Temperatures Readings
Current -2°C / 28°F
Dewpoint -4°C / 25°F
Humidity 86%
Altimeter 29.32" Hg
Pressure 996.1 hPa
Elevation 504
METAR CYMA 161400Z VRB02KT 20SM OVC052 M02/M04 A2932 RMK SC8 SLP961
Observed Flight Rules
Dec-16 @ 14:00 UTC
(35 minutes ago)
VFR
Wind Visibility
Variable at 2 knots 20 miles
Clouds
  • Overcast at 5,200' AGL
Temperature Dewpoint
-2°C / 28°F -4°C / 25°F
Humidity Altimeter Pressure
86% 29.32" Hg 996.1 hPa